createdAt,value
2022-08-26T00:02:13.470Z,18.91
2022-08-26T00:04:44.508Z,18.84
2022-08-26T00:07:38.189Z,18.76
2022-08-26T00:10:08.025Z,18.79
2022-08-26T00:12:37.881Z,18.73
2022-08-26T00:15:08.901Z,18.74
2022-08-26T00:17:37.494Z,18.73
2022-08-26T00:20:11.727Z,18.74
2022-08-26T00:22:40.001Z,18.73
2022-08-26T00:25:10.894Z,18.67
2022-08-26T00:27:40.962Z,18.74
2022-08-26T00:30:14.117Z,18.60
2022-08-26T00:32:46.273Z,18.71
2022-08-26T00:35:15.291Z,18.47
2022-08-26T00:37:44.597Z,18.43
2022-08-26T00:40:21.412Z,18.47
2022-08-26T00:42:51.150Z,18.54
2022-08-26T00:45:19.661Z,18.61
2022-08-26T00:47:52.189Z,18.58
2022-08-26T00:50:25.065Z,18.40
2022-08-26T00:52:56.612Z,18.50
2022-08-26T00:55:34.520Z,18.32
2022-08-26T00:58:08.698Z,18.16
2022-08-26T01:00:37.178Z,18.27
2022-08-26T01:03:07.460Z,18.18
2022-08-26T01:05:40.640Z,18.24
2022-08-26T01:08:11.393Z,18.19
2022-08-26T01:10:40.352Z,18.13
2022-08-26T01:13:12.390Z,18.15
2022-08-26T01:15:45.742Z,18.09
2022-08-26T01:18:15.078Z,18.14
2022-08-26T01:20:57.715Z,18.04
2022-08-26T01:23:32.782Z,17.89
2022-08-26T01:26:06.711Z,17.85
2022-08-26T01:28:36.835Z,17.87
2022-08-26T01:31:09.038Z,17.80
2022-08-26T01:33:51.826Z,17.72
2022-08-26T01:36:21.764Z,17.71
2022-08-26T01:38:51.362Z,17.70
2022-08-26T01:41:27.250Z,17.64
2022-08-26T01:43:58.890Z,17.13
2022-08-26T01:46:29.618Z,17.63
2022-08-26T01:49:02.674Z,17.58
2022-08-26T01:51:32.640Z,17.57
2022-08-26T01:54:02.202Z,17.67
2022-08-26T01:56:36.603Z,17.59
2022-08-26T01:59:10.757Z,17.59
2022-08-26T02:01:40.552Z,17.42
2022-08-26T02:04:23.814Z,17.48
2022-08-26T02:06:53.815Z,17.23
2022-08-26T02:09:25.381Z,17.41
2022-08-26T02:11:55.400Z,17.55
2022-08-26T02:14:29.273Z,17.39
2022-08-26T02:16:58.446Z,17.42
2022-08-26T02:19:32.901Z,17.55
2022-08-26T02:22:05.359Z,17.61
2022-08-26T02:24:50.539Z,17.64
2022-08-26T02:27:23.705Z,17.47
2022-08-26T02:29:57.020Z,17.67
2022-08-26T02:32:26.034Z,17.50
2022-08-26T02:35:02.014Z,17.59
2022-08-26T02:37:32.187Z,17.45
2022-08-26T02:40:05.916Z,17.47
2022-08-26T02:42:34.273Z,17.36
2022-08-26T02:45:03.531Z,17.33
2022-08-26T02:47:34.402Z,17.14
2022-08-26T02:50:03.002Z,17.09
2022-08-26T02:52:31.206Z,17.04
2022-08-26T02:55:01.250Z,16.93
2022-08-26T02:57:32.076Z,16.93
2022-08-26T03:00:01.723Z,16.95
2022-08-26T03:02:31.103Z,15.96
2022-08-26T03:05:02.257Z,16.99
2022-08-26T03:07:31.220Z,17.01
2022-08-26T03:09:59.559Z,16.90
2022-08-26T03:12:27.875Z,16.88
2022-08-26T03:14:57.650Z,16.87
2022-08-26T03:17:26.906Z,16.77
2022-08-26T03:19:57.286Z,16.07
2022-08-26T03:22:27.117Z,16.89
2022-08-26T03:24:55.649Z,16.68
2022-08-26T03:27:23.872Z,16.64
2022-08-26T03:30:11.827Z,16.59
2022-08-26T03:32:41.771Z,16.52
2022-08-26T03:35:11.639Z,16.54
2022-08-26T03:37:40.794Z,16.53
2022-08-26T03:40:11.573Z,15.77
2022-08-26T03:42:41.680Z,16.66
2022-08-26T03:45:16.264Z,16.58
2022-08-26T03:47:47.508Z,16.72
2022-08-26T03:50:22.653Z,16.24
2022-08-26T03:52:52.631Z,16.34
2022-08-26T03:55:24.284Z,16.52
2022-08-26T03:57:52.774Z,16.56
2022-08-26T04:00:21.963Z,16.40
2022-08-26T04:02:53.410Z,16.41
2022-08-26T04:05:23.553Z,16.28
2022-08-26T04:07:52.402Z,16.28
2022-08-26T04:10:26.397Z,16.18
2022-08-26T04:13:00.705Z,16.17
2022-08-26T04:15:29.297Z,16.19
2022-08-26T04:17:59.070Z,16.08
2022-08-26T04:20:27.836Z,16.01
2022-08-26T04:22:56.438Z,16.17
2022-08-26T04:25:25.762Z,16.05
2022-08-26T04:27:54.928Z,16.15
2022-08-26T04:30:23.183Z,16.09
2022-08-26T04:32:52.231Z,16.12
2022-08-26T04:35:26.006Z,16.26
2022-08-26T04:37:56.061Z,16.14
2022-08-26T04:40:27.540Z,16.17
2022-08-26T04:42:56.482Z,16.15
2022-08-26T04:45:25.473Z,15.98
2022-08-26T04:47:56.272Z,16.00
2022-08-26T04:50:26.978Z,16.08
2022-08-26T04:52:56.112Z,16.09
2022-08-26T04:55:38.619Z,16.21
2022-08-26T04:58:10.462Z,15.69
2022-08-26T05:00:39.915Z,16.23
2022-08-26T05:03:10.284Z,16.36
2022-08-26T05:05:42.466Z,16.23
2022-08-26T05:08:12.434Z,16.35
2022-08-26T05:10:42.039Z,16.44
2022-08-26T05:13:15.114Z,16.33
2022-08-26T05:15:45.212Z,16.43
2022-08-26T05:18:16.394Z,16.48
2022-08-26T05:20:49.663Z,16.45
2022-08-26T05:23:19.845Z,16.61
2022-08-26T05:25:53.603Z,16.62
2022-08-26T05:28:24.199Z,16.62
2022-08-26T05:30:53.265Z,16.66
2022-08-26T05:33:21.973Z,16.62
2022-08-26T05:35:51.851Z,16.92
2022-08-26T05:38:22.860Z,16.92
2022-08-26T05:40:53.106Z,17.03
2022-08-26T05:43:22.187Z,17.22
2022-08-26T05:45:51.874Z,17.38
2022-08-26T05:48:24.478Z,17.50
2022-08-26T05:50:54.749Z,17.76
2022-08-26T05:53:26.028Z,17.64
2022-08-26T05:55:55.898Z,17.63
2022-08-26T05:58:25.048Z,17.75
2022-08-26T06:01:01.323Z,17.78
2022-08-26T06:03:33.887Z,17.77
2022-08-26T06:06:06.699Z,18.07
2022-08-26T06:08:35.783Z,18.16
2022-08-26T06:11:07.474Z,18.10
2022-08-26T06:13:41.613Z,18.38
2022-08-26T06:16:13.200Z,18.48
2022-08-26T06:18:44.254Z,18.66
2022-08-26T06:21:18.476Z,18.89
2022-08-26T06:24:06.375Z,19.06
2022-08-26T06:26:36.705Z,19.32
2022-08-26T06:29:06.639Z,19.43
2022-08-26T06:31:38.164Z,19.63
2022-08-26T06:34:10.737Z,19.92
2022-08-26T06:36:44.707Z,20.01
2022-08-26T06:39:16.192Z,19.84
2022-08-26T06:41:45.706Z,19.09
2022-08-26T06:44:19.427Z,20.43
2022-08-26T06:46:50.204Z,20.67
2022-08-26T06:49:20.471Z,20.79
2022-08-26T06:51:58.916Z,20.97
2022-08-26T06:54:27.948Z,21.21
2022-08-26T06:56:57.483Z,21.42
2022-08-26T06:59:26.113Z,21.59
2022-08-26T07:01:55.115Z,21.65
2022-08-26T07:04:24.659Z,21.88
2022-08-26T07:06:53.958Z,22.01
2022-08-26T07:09:26.704Z,22.09
2022-08-26T07:11:57.151Z,22.24
2022-08-26T07:14:26.157Z,22.32
2022-08-26T07:16:55.767Z,22.25
2022-08-26T07:19:29.773Z,22.54
2022-08-26T07:22:01.887Z,22.70
2022-08-26T07:24:32.913Z,22.87
2022-08-26T07:27:02.841Z,22.91
2022-08-26T07:29:31.541Z,23.04
2022-08-26T07:32:00.184Z,23.04
2022-08-26T07:34:28.730Z,23.27
2022-08-26T07:36:58.823Z,23.61
2022-08-26T07:39:28.545Z,23.58
2022-08-26T07:42:01.684Z,23.92
2022-08-26T07:44:36.829Z,24.05
2022-08-26T07:47:10.046Z,23.95
2022-08-26T07:49:52.992Z,24.19
2022-08-26T07:52:26.391Z,24.28
2022-08-26T07:54:56.621Z,24.53
2022-08-26T07:57:26.613Z,24.76
2022-08-26T07:59:56.039Z,24.69
2022-08-26T08:02:27.115Z,24.79
2022-08-26T08:04:56.769Z,24.84
2022-08-26T08:07:38.784Z,24.92
2022-08-26T08:10:16.298Z,25.65
2022-08-26T08:12:46.207Z,25.26
2022-08-26T08:15:15.792Z,25.16
2022-08-26T08:17:44.810Z,25.16
2022-08-26T08:20:15.078Z,25.29
2022-08-26T08:22:44.078Z,25.32
2022-08-26T08:25:13.933Z,25.35
2022-08-26T08:27:45.791Z,25.35
2022-08-26T08:30:22.607Z,25.42
2022-08-26T08:32:51.333Z,25.47
2022-08-26T08:35:22.400Z,25.35
2022-08-26T08:37:54.381Z,25.29
2022-08-26T08:40:25.595Z,25.38
2022-08-26T08:43:00.721Z,25.27
2022-08-26T08:45:38.306Z,25.42
2022-08-26T08:48:15.201Z,25.39
2022-08-26T08:50:47.390Z,25.36
2022-08-26T08:53:20.384Z,25.44
2022-08-26T08:56:08.765Z,25.85
2022-08-26T08:58:51.449Z,26.15
2022-08-26T09:01:39.358Z,26.24
2022-08-26T09:04:35.107Z,26.11
2022-08-26T09:07:08.304Z,26.29
2022-08-26T09:09:40.780Z,26.32
2022-08-26T09:12:17.004Z,26.18
2022-08-26T09:14:51.056Z,26.08
2022-08-26T09:17:34.275Z,26.06
2022-08-26T09:20:13.479Z,26.25
2022-08-26T09:22:44.339Z,26.18
2022-08-26T09:25:15.779Z,26.17
2022-08-26T09:27:47.746Z,26.14
2022-08-26T09:30:27.510Z,26.17
2022-08-26T09:33:02.529Z,26.12
2022-08-26T09:35:34.270Z,26.07
2022-08-26T09:38:02.990Z,26.20
2022-08-26T09:40:35.407Z,25.78
2022-08-26T09:43:11.970Z,26.20
2022-08-26T09:45:44.462Z,25.71
2022-08-26T09:48:28.981Z,26.21
2022-08-26T09:51:00.526Z,25.99
2022-08-26T09:53:31.544Z,26.15
2022-08-26T09:56:18.589Z,26.29
2022-08-26T09:58:48.940Z,26.15
2022-08-26T10:01:30.694Z,26.20
2022-08-26T10:04:08.265Z,26.23
2022-08-26T10:06:41.616Z,25.62
2022-08-26T10:09:15.008Z,26.40
2022-08-26T10:11:48.883Z,26.31
2022-08-26T10:14:24.397Z,26.27
2022-08-26T10:17:02.716Z,26.15
2022-08-26T10:19:56.275Z,25.98
2022-08-26T10:22:31.460Z,25.55
2022-08-26T10:25:04.884Z,25.88
2022-08-26T10:27:51.359Z,25.69
2022-08-26T10:30:24.266Z,25.71
2022-08-26T10:32:59.072Z,25.43
2022-08-26T10:35:28.027Z,25.44
2022-08-26T10:38:03.935Z,25.33
2022-08-26T10:40:45.174Z,25.03
2022-08-26T10:43:23.525Z,25.09
2022-08-26T10:46:00.340Z,24.90
2022-08-26T10:49:00.357Z,22.58
2022-08-26T10:51:38.553Z,22.37
2022-08-26T10:54:14.495Z,22.37
2022-08-26T10:56:54.275Z,21.70
2022-08-26T10:59:32.286Z,21.22
2022-08-26T11:02:10.000Z,21.26
2022-08-26T11:04:49.166Z,21.21
2022-08-26T11:07:43.377Z,21.08
2022-08-26T11:11:04.853Z,20.89
2022-08-26T11:14:03.315Z,20.77
2022-08-26T11:16:42.796Z,20.69
2022-08-26T11:19:14.235Z,21.02
2022-08-26T11:21:52.492Z,21.23
2022-08-26T11:24:47.133Z,21.38
2022-08-26T11:28:05.238Z,21.32
2022-08-26T11:30:56.956Z,21.30
2022-08-26T11:33:58.245Z,21.47
2022-08-26T11:36:53.311Z,21.33
2022-08-26T11:39:28.678Z,21.49
2022-08-26T11:42:01.238Z,21.53
2022-08-26T11:44:40.620Z,21.69
2022-08-26T11:47:11.297Z,21.90
2022-08-26T11:49:41.178Z,21.71
2022-08-26T11:52:20.969Z,20.88
2022-08-26T11:55:03.367Z,21.59
2022-08-26T11:57:35.642Z,21.50
2022-08-26T12:00:08.332Z,21.56
2022-08-26T12:02:41.514Z,21.76
2022-08-26T12:05:10.201Z,21.60
2022-08-26T12:07:44.097Z,21.86
2022-08-26T12:10:29.822Z,21.72
2022-08-26T12:13:00.437Z,21.81
2022-08-26T12:15:30.200Z,21.85
2022-08-26T12:18:00.358Z,21.91
2022-08-26T12:20:47.975Z,21.94
2022-08-26T12:23:28.165Z,21.90
2022-08-26T12:26:07.295Z,22.00
2022-08-26T12:28:43.610Z,21.91
2022-08-26T12:31:11.922Z,22.02
2022-08-26T12:33:40.471Z,21.76
2022-08-26T12:36:08.794Z,21.92
2022-08-26T12:38:40.388Z,21.85
2022-08-26T12:41:08.803Z,21.80
2022-08-26T12:43:43.224Z,21.85
2022-08-26T12:46:15.337Z,21.83
2022-08-26T12:48:49.000Z,21.70
2022-08-26T12:51:25.910Z,21.83
2022-08-26T12:53:56.120Z,21.46
2022-08-26T12:56:31.547Z,21.91
2022-08-26T12:59:07.675Z,21.91
2022-08-26T13:01:42.871Z,21.91
2022-08-26T13:04:34.448Z,21.90
2022-08-26T13:07:30.080Z,21.81
2022-08-26T13:10:00.929Z,21.85
2022-08-26T13:12:34.424Z,21.51
2022-08-26T13:15:06.429Z,21.57
2022-08-26T13:17:35.865Z,21.43
2022-08-26T13:20:05.016Z,21.58
2022-08-26T13:22:33.434Z,21.69
2022-08-26T13:25:03.023Z,21.64
2022-08-26T13:27:31.265Z,21.56
2022-08-26T13:30:00.294Z,21.56
2022-08-26T13:32:28.917Z,21.59
2022-08-26T13:34:58.729Z,21.66
2022-08-26T13:37:34.735Z,21.82
2022-08-26T13:40:07.473Z,21.35
2022-08-26T13:42:36.098Z,21.72
2022-08-26T13:45:06.193Z,21.66
2022-08-26T13:47:34.402Z,21.85
2022-08-26T13:50:02.869Z,21.92
2022-08-26T13:52:31.305Z,21.85
2022-08-26T13:55:00.790Z,21.82
2022-08-26T13:57:31.327Z,21.43
2022-08-26T14:00:00.107Z,21.50
2022-08-26T14:02:29.027Z,21.42
2022-08-26T14:04:59.607Z,21.65
2022-08-26T14:07:27.831Z,21.73
2022-08-26T14:09:56.059Z,21.70
2022-08-26T14:12:24.419Z,21.79
2022-08-26T14:14:53.943Z,22.02
2022-08-26T14:17:24.460Z,21.89
2022-08-26T14:19:53.630Z,21.83
2022-08-26T14:22:23.408Z,21.82
2022-08-26T14:24:53.755Z,21.90
2022-08-26T14:27:21.936Z,21.94
2022-08-26T14:29:50.224Z,22.11
2022-08-26T14:32:26.166Z,22.03
2022-08-26T14:34:55.383Z,22.12
2022-08-26T14:37:23.837Z,22.17
2022-08-26T14:39:52.821Z,21.65
2022-08-26T14:42:24.567Z,22.41
2022-08-26T14:44:58.357Z,22.72
2022-08-26T14:47:28.015Z,22.81
2022-08-26T14:49:56.266Z,23.01
2022-08-26T14:52:24.900Z,23.22
2022-08-26T14:54:54.950Z,23.18
2022-08-26T14:57:23.954Z,23.14
2022-08-26T14:59:52.185Z,23.27
2022-08-26T15:02:32.910Z,23.18
2022-08-26T15:05:04.405Z,23.49
2022-08-26T15:07:32.788Z,23.64
2022-08-26T15:10:01.144Z,23.94
2022-08-26T15:12:29.325Z,23.92
2022-08-26T15:14:57.474Z,24.15
2022-08-26T15:17:26.210Z,24.35
2022-08-26T15:19:54.399Z,24.49
2022-08-26T15:22:24.191Z,24.55
2022-08-26T15:24:58.173Z,24.77
2022-08-26T15:27:26.562Z,24.61
2022-08-26T15:29:55.125Z,24.68
2022-08-26T15:32:24.260Z,24.82
2022-08-26T15:34:53.158Z,24.93
2022-08-26T15:37:22.843Z,24.52
2022-08-26T15:39:52.022Z,24.68
2022-08-26T15:42:20.870Z,24.95
2022-08-26T15:44:49.862Z,25.21
2022-08-26T15:47:18.376Z,25.26
2022-08-26T15:49:47.907Z,25.26
2022-08-26T15:52:17.417Z,24.82
2022-08-26T15:54:46.926Z,24.98
2022-08-26T15:57:17.599Z,24.91
2022-08-26T15:59:48.259Z,24.44
2022-08-26T16:02:19.517Z,24.63
2022-08-26T16:04:47.771Z,24.44
2022-08-26T16:07:15.986Z,24.22
2022-08-26T16:09:44.340Z,24.22
2022-08-26T16:14:44.499Z,24.02
2022-08-26T16:17:13.070Z,23.85
2022-08-26T16:19:41.249Z,23.86
2022-08-26T16:22:09.445Z,23.83
2022-08-26T16:24:38.389Z,24.04
2022-08-26T16:27:07.471Z,24.05
2022-08-26T16:29:39.756Z,24.31
2022-08-26T16:32:09.120Z,23.99
2022-08-26T16:34:37.289Z,23.93
2022-08-26T16:37:15.322Z,23.65
2022-08-26T16:39:45.088Z,23.62
2022-08-26T16:42:13.568Z,23.43
2022-08-26T16:44:45.262Z,23.31
2022-08-26T16:47:14.367Z,23.12
2022-08-26T16:49:43.830Z,23.16
2022-08-26T16:52:12.737Z,22.98
2022-08-26T16:54:43.553Z,22.96
2022-08-26T16:57:13.429Z,22.93
2022-08-26T16:59:43.175Z,23.04
2022-08-26T17:02:12.435Z,23.21
2022-08-26T17:04:41.702Z,23.04
2022-08-26T17:07:16.374Z,22.98
2022-08-26T17:09:44.551Z,23.02
2022-08-26T17:12:12.799Z,23.19
2022-08-26T17:14:42.437Z,23.10
2022-08-26T17:17:14.169Z,23.05
2022-08-26T17:19:47.099Z,23.16
2022-08-26T17:22:15.909Z,23.06
2022-08-26T17:24:44.195Z,22.64
2022-08-26T17:27:12.876Z,23.01
2022-08-26T17:29:42.435Z,22.85
2022-08-26T17:32:10.622Z,22.74
2022-08-26T17:34:38.890Z,22.82
2022-08-26T17:37:08.251Z,22.67
2022-08-26T17:39:42.423Z,22.58
2022-08-26T17:42:11.745Z,22.00
2022-08-26T17:44:40.452Z,22.39
2022-08-26T17:47:10.000Z,22.28
2022-08-26T17:49:38.235Z,22.21
2022-08-26T17:52:09.681Z,22.35
2022-08-26T17:54:39.673Z,22.06
2022-08-26T17:57:10.692Z,22.24
2022-08-26T17:59:40.946Z,21.92
2022-08-26T18:02:14.741Z,21.90
2022-08-26T18:04:43.052Z,21.77
2022-08-26T18:07:12.033Z,21.72
2022-08-26T18:09:40.606Z,21.75
2022-08-26T18:12:09.565Z,21.67
2022-08-26T18:14:37.904Z,21.50
2022-08-26T18:17:06.186Z,21.52
2022-08-26T18:19:35.762Z,21.48
2022-08-26T18:22:05.723Z,21.30
2022-08-26T18:24:34.817Z,21.23
2022-08-26T18:27:03.034Z,20.87
2022-08-26T18:29:31.242Z,20.51
2022-08-26T18:31:59.495Z,20.58
2022-08-26T18:34:31.639Z,20.49
2022-08-26T18:37:01.607Z,20.33
2022-08-26T18:39:29.909Z,20.25
2022-08-26T18:41:58.092Z,20.22
2022-08-26T18:44:26.371Z,20.09
2022-08-26T18:46:54.713Z,20.08
2022-08-26T18:49:23.191Z,20.04
2022-08-26T18:51:52.403Z,20.14
2022-08-26T18:54:22.495Z,19.97
2022-08-26T18:56:50.919Z,19.98
2022-08-26T18:59:19.285Z,19.74
2022-08-26T19:01:55.065Z,19.94
2022-08-26T19:04:23.340Z,19.79
2022-08-26T19:06:52.865Z,19.72
2022-08-26T19:09:22.967Z,19.55
2022-08-26T19:11:51.279Z,19.64
2022-08-26T19:14:20.689Z,19.51
2022-08-26T19:16:52.361Z,19.49
2022-08-26T19:19:23.814Z,19.52
2022-08-26T19:21:52.682Z,19.45
2022-08-26T19:24:23.164Z,19.62
2022-08-26T19:26:59.996Z,19.62
2022-08-26T19:29:30.807Z,19.54
2022-08-26T19:31:59.735Z,19.46
2022-08-26T19:34:27.975Z,19.84
2022-08-26T19:36:58.279Z,19.38
2022-08-26T19:39:28.149Z,19.77
2022-08-26T19:41:56.541Z,19.69
2022-08-26T19:44:42.936Z,19.75
2022-08-26T19:47:12.929Z,19.76
2022-08-26T19:49:41.122Z,19.73
2022-08-26T19:52:11.013Z,19.62
2022-08-26T19:54:41.217Z,19.28
2022-08-26T19:57:09.420Z,19.06
2022-08-26T19:59:37.648Z,18.90
2022-08-26T20:02:31.652Z,18.72
2022-08-26T20:04:59.848Z,18.55
2022-08-26T20:07:28.024Z,18.73
2022-08-26T20:09:59.333Z,18.66
2022-08-26T20:12:29.208Z,18.14
2022-08-26T20:14:57.456Z,18.57
2022-08-26T20:17:25.623Z,18.63
2022-08-26T20:20:13.302Z,18.54
2022-08-26T20:22:59.579Z,18.28
2022-08-26T20:25:29.456Z,17.89
2022-08-26T20:27:57.635Z,18.00
2022-08-26T20:30:25.814Z,17.87
2022-08-26T20:32:53.969Z,17.94
2022-08-26T20:35:23.819Z,17.91
2022-08-26T20:37:52.118Z,17.94
2022-08-26T20:40:21.314Z,18.25
2022-08-26T20:42:50.926Z,18.26
2022-08-26T20:45:19.272Z,18.16
2022-08-26T20:47:47.503Z,18.29
2022-08-26T20:50:15.736Z,18.15
2022-08-26T20:52:43.930Z,18.08
2022-08-26T20:55:12.926Z,17.85
2022-08-26T20:57:42.039Z,17.82
2022-08-26T21:00:16.244Z,17.45
2022-08-26T21:02:46.250Z,17.66
2022-08-26T21:05:14.466Z,17.65
2022-08-26T21:07:42.728Z,17.75
2022-08-26T21:10:12.508Z,17.80
2022-08-26T21:12:40.727Z,17.66
2022-08-26T21:15:11.774Z,17.70
2022-08-26T21:17:39.985Z,17.56
2022-08-26T21:20:09.495Z,17.54
2022-08-26T21:22:37.723Z,17.51
2022-08-26T21:25:07.212Z,17.53
2022-08-26T21:27:36.158Z,17.51
2022-08-26T21:30:05.143Z,17.51
2022-08-26T21:32:34.760Z,17.47
2022-08-26T21:35:03.048Z,17.07
2022-08-26T21:37:31.302Z,17.59
2022-08-26T21:40:01.853Z,17.54
2022-08-26T21:42:33.553Z,17.60
2022-08-26T21:45:03.250Z,17.42
2022-08-26T21:47:32.609Z,17.76
2022-08-26T21:50:02.413Z,17.80
2022-08-26T21:52:30.678Z,17.93
2022-08-26T21:54:59.702Z,17.92
2022-08-26T21:57:29.849Z,18.06
2022-08-26T21:59:58.482Z,17.34
2022-08-26T22:02:27.010Z,18.06
2022-08-26T22:04:56.383Z,17.92
2022-08-26T22:07:25.968Z,17.85
2022-08-26T22:09:54.143Z,18.16
2022-08-26T22:12:22.310Z,18.08
2022-08-26T22:14:50.493Z,18.09
2022-08-26T22:17:18.730Z,17.93
2022-08-26T22:19:47.570Z,18.00
2022-08-26T22:22:16.463Z,17.84
2022-08-26T22:24:45.965Z,18.06
2022-08-26T22:27:15.333Z,17.96
2022-08-26T22:29:43.712Z,17.77
2022-08-26T22:32:12.511Z,17.89
2022-08-26T22:34:41.828Z,17.94
2022-08-26T22:37:10.033Z,17.73
2022-08-26T22:39:38.731Z,17.73
2022-08-26T22:42:08.369Z,17.91
2022-08-26T22:44:37.550Z,18.00
2022-08-26T22:47:06.231Z,18.07
2022-08-26T22:49:34.428Z,18.05
2022-08-26T22:52:02.861Z,17.91
2022-08-26T22:54:31.146Z,17.79
2022-08-26T22:56:59.420Z,17.44
2022-08-26T22:59:30.131Z,17.76
2022-08-26T23:01:58.347Z,17.30
2022-08-26T23:04:26.555Z,17.54
2022-08-26T23:06:54.936Z,17.55
2022-08-26T23:09:23.142Z,17.55
2022-08-26T23:11:51.328Z,17.56
2022-08-26T23:14:19.999Z,17.54
2022-08-26T23:16:49.877Z,17.65
2022-08-26T23:19:21.527Z,17.01
2022-08-26T23:21:50.605Z,17.66
2022-08-26T23:24:19.423Z,17.62
2022-08-26T23:26:48.165Z,17.70
2022-08-26T23:29:16.710Z,17.78
2022-08-26T23:31:45.520Z,17.74
2022-08-26T23:34:32.699Z,17.45
2022-08-26T23:37:01.686Z,17.56
2022-08-26T23:39:30.264Z,17.64
2022-08-26T23:41:58.618Z,17.75
2022-08-26T23:44:26.958Z,17.63
2022-08-26T23:46:55.311Z,17.64
2022-08-26T23:49:25.892Z,17.59
2022-08-26T23:52:12.522Z,17.39
2022-08-26T23:54:41.631Z,17.25
2022-08-26T23:57:10.912Z,17.27
2022-08-26T23:59:40.190Z,17.35
